createdAt,value
2018-02-17T00:00:04.940Z,3.24
2018-02-17T00:00:43.920Z,3.18
2018-02-17T00:01:43.905Z,3.21
2018-02-17T00:02:43.888Z,3.18
2018-02-17T00:03:43.876Z,3.20
2018-02-17T00:04:43.864Z,3.23
2018-02-17T00:06:04.855Z,3.23
2018-02-17T00:06:43.836Z,3.24
2018-02-17T00:07:43.824Z,3.26
2018-02-17T00:08:43.812Z,3.18
2018-02-17T00:09:43.792Z,3.23
2018-02-17T00:10:43.784Z,3.21
2018-02-17T00:12:04.769Z,3.21
2018-02-17T00:12:43.760Z,3.21
2018-02-17T00:13:43.740Z,3.21
2018-02-17T00:14:43.725Z,3.20
2018-02-17T00:15:43.710Z,3.17
2018-02-17T00:16:43.699Z,3.18
2018-02-17T00:18:04.699Z,3.21
2018-02-17T00:18:43.670Z,3.17
2018-02-17T00:19:43.657Z,3.15
2018-02-17T00:20:43.641Z,3.17
2018-02-17T00:21:43.631Z,3.21
2018-02-17T00:22:43.614Z,3.21
2018-02-17T00:24:04.601Z,3.11
2018-02-17T00:24:43.588Z,3.15
2018-02-17T00:25:43.574Z,3.17
2018-02-17T00:26:43.557Z,3.18
2018-02-17T00:27:44.466Z,3.17
2018-02-17T00:28:43.533Z,3.15
2018-02-17T00:30:04.522Z,3.18
2018-02-17T00:30:43.510Z,3.24
2018-02-17T00:31:43.489Z,3.20
2018-02-17T00:32:43.477Z,3.26
2018-02-17T00:33:43.460Z,3.31
2018-02-17T00:34:43.453Z,3.26
2018-02-17T00:36:04.442Z,3.26
2018-02-17T00:36:43.419Z,3.21
2018-02-17T00:37:43.417Z,3.23
2018-02-17T00:38:43.396Z,3.20
2018-02-17T00:39:43.382Z,3.23
2018-02-17T00:40:43.364Z,3.31
2018-02-17T00:42:04.355Z,3.28
2018-02-17T00:42:43.337Z,3.24
2018-02-17T00:43:43.321Z,3.26
2018-02-17T00:44:43.310Z,3.15
2018-02-17T00:45:43.299Z,3.21
2018-02-17T00:46:43.284Z,3.17
2018-02-17T00:48:04.277Z,3.14
2018-02-17T00:48:43.257Z,3.15
2018-02-17T00:49:43.244Z,3.18
2018-02-17T00:50:43.228Z,3.20
2018-02-17T00:51:43.217Z,3.28
2018-02-17T00:52:43.201Z,3.28
2018-02-17T00:54:04.190Z,3.23
2018-02-17T00:54:43.184Z,3.23
2018-02-17T00:55:43.155Z,3.23
2018-02-17T00:56:43.144Z,3.31
2018-02-17T00:57:43.137Z,3.18
2018-02-17T00:58:43.115Z,3.28
2018-02-17T01:00:04.106Z,3.26
2018-02-17T01:00:43.088Z,3.24
2018-02-17T01:01:43.077Z,3.21
2018-02-17T01:02:43.068Z,3.23
2018-02-17T01:03:43.049Z,3.23
2018-02-17T01:04:43.031Z,3.18
2018-02-17T01:06:04.023Z,3.18
2018-02-17T01:06:43.005Z,3.21
2018-02-17T01:07:42.991Z,3.18
2018-02-17T01:08:42.978Z,3.15
2018-02-17T01:09:42.964Z,3.14
2018-02-17T01:10:42.945Z,3.15
2018-02-17T01:12:03.938Z,3.18
2018-02-17T01:12:42.921Z,3.13
2018-02-17T01:13:42.907Z,3.15
2018-02-17T01:14:42.888Z,3.21
2018-02-17T01:15:42.877Z,3.18
2018-02-17T01:16:42.868Z,3.15
2018-02-17T01:18:03.853Z,3.13
2018-02-17T01:18:42.832Z,3.08
2018-02-17T01:19:42.819Z,3.15
2018-02-17T01:20:42.803Z,3.10
2018-02-17T01:21:42.793Z,3.15
2018-02-17T01:22:42.778Z,3.20
2018-02-17T01:24:03.765Z,3.20
2018-02-17T01:24:42.750Z,3.13
2018-02-17T01:25:42.736Z,3.20
2018-02-17T01:26:42.721Z,3.23
2018-02-17T01:27:42.707Z,3.20
2018-02-17T01:28:42.688Z,3.17
2018-02-17T01:30:03.682Z,3.13
2018-02-17T01:30:42.660Z,3.15
2018-02-17T01:31:42.650Z,3.18
2018-02-17T01:32:42.641Z,3.13
2018-02-17T01:33:42.619Z,3.06
2018-02-17T01:34:42.607Z,3.08
2018-02-17T01:36:03.594Z,3.13
2018-02-17T01:36:42.574Z,3.08
2018-02-17T01:37:42.564Z,3.03
2018-02-17T01:38:42.548Z,3.06
2018-02-17T01:39:42.532Z,3.11
2018-02-17T01:40:42.517Z,3.05
2018-02-17T01:42:03.515Z,3.03
2018-02-17T01:42:42.493Z,3.08
2018-02-17T01:43:42.475Z,3.03
2018-02-17T01:44:42.462Z,3.08
2018-02-17T01:45:42.449Z,3.08
2018-02-17T01:46:42.434Z,3.03
2018-02-17T01:48:03.423Z,3.00
2018-02-17T01:48:42.403Z,3.00
2018-02-17T01:49:42.388Z,2.97
2018-02-17T01:50:42.373Z,2.97
2018-02-17T01:51:42.357Z,2.92
2018-02-17T01:52:42.348Z,3.00
2018-02-17T01:54:03.340Z,2.92
2018-02-17T01:54:42.314Z,2.95
2018-02-17T01:55:42.302Z,2.97
2018-02-17T01:56:42.294Z,2.89
2018-02-17T01:57:42.272Z,2.97
2018-02-17T01:58:42.259Z,2.92
2018-02-17T02:00:03.250Z,2.97
2018-02-17T02:00:42.227Z,2.96
2018-02-17T02:01:42.213Z,2.97
2018-02-17T02:02:42.197Z,3.03
2018-02-17T02:03:42.186Z,3.00
2018-02-17T02:04:42.174Z,2.96
2018-02-17T02:06:03.161Z,3.02
2018-02-17T02:06:42.144Z,2.95
2018-02-17T02:07:42.130Z,2.97
2018-02-17T02:08:42.119Z,2.92
2018-02-17T02:09:42.101Z,2.96
2018-02-17T02:10:42.091Z,2.96
2018-02-17T02:12:03.082Z,2.82
2018-02-17T02:12:42.060Z,2.81
2018-02-17T02:13:42.041Z,2.96
2018-02-17T02:14:42.029Z,2.84
2018-02-17T02:15:42.012Z,2.82
2018-02-17T02:16:42.000Z,2.85
2018-02-17T02:18:02.986Z,2.77
2018-02-17T02:18:41.972Z,2.82
2018-02-17T02:19:41.954Z,2.84
2018-02-17T02:20:41.938Z,2.85
2018-02-17T02:21:41.930Z,2.84
2018-02-17T02:22:41.908Z,2.81
2018-02-17T02:24:02.899Z,2.79
2018-02-17T02:24:41.876Z,2.78
2018-02-17T02:25:41.863Z,2.79
2018-02-17T02:26:41.851Z,2.84
2018-02-17T02:27:41.834Z,2.77
2018-02-17T02:28:41.825Z,2.63
2018-02-17T02:30:02.813Z,2.64
2018-02-17T02:30:41.794Z,2.82
2018-02-17T02:31:41.778Z,2.69
2018-02-17T02:32:41.762Z,2.71
2018-02-17T02:33:41.751Z,2.74
2018-02-17T02:34:41.731Z,2.75
2018-02-17T02:36:02.724Z,2.67
2018-02-17T02:36:41.698Z,2.63
2018-02-17T02:37:41.691Z,2.77
2018-02-17T02:38:41.674Z,2.71
2018-02-17T02:39:41.658Z,2.78
2018-02-17T02:40:41.643Z,2.79
2018-02-17T02:42:02.636Z,2.77
2018-02-17T02:42:41.617Z,2.78
2018-02-17T02:43:41.603Z,2.84
2018-02-17T02:44:41.588Z,2.84
2018-02-17T02:45:41.567Z,2.82
2018-02-17T02:46:41.557Z,2.84
2018-02-17T02:48:02.543Z,2.89
2018-02-17T02:48:41.530Z,2.92
2018-02-17T02:49:41.512Z,2.87
2018-02-17T02:50:41.498Z,2.89
2018-02-17T02:51:41.486Z,2.87
2018-02-17T02:52:41.468Z,2.82
2018-02-17T02:54:02.465Z,2.95
2018-02-17T02:54:41.438Z,2.92
2018-02-17T02:55:41.422Z,2.95
2018-02-17T02:56:41.404Z,2.90
2018-02-17T02:57:41.393Z,3.02
2018-02-17T02:58:41.381Z,2.96
2018-02-17T03:00:02.376Z,2.93
2018-02-17T03:00:41.344Z,2.89
2018-02-17T03:01:41.338Z,2.93
2018-02-17T03:02:41.320Z,2.96
2018-02-17T03:03:41.308Z,2.87
2018-02-17T03:04:41.292Z,2.93
2018-02-17T03:06:02.286Z,2.99
2018-02-17T03:06:41.261Z,2.90
2018-02-17T03:07:41.243Z,2.95
2018-02-17T03:08:41.233Z,2.93
2018-02-17T03:09:41.215Z,2.95
2018-02-17T03:10:41.201Z,2.96
2018-02-17T03:12:02.194Z,3.02
2018-02-17T03:12:41.173Z,3.02
2018-02-17T03:13:41.161Z,2.97
2018-02-17T03:14:41.143Z,3.00
2018-02-17T03:15:41.127Z,3.02
2018-02-17T03:16:41.111Z,3.06
2018-02-17T03:18:02.101Z,3.05
2018-02-17T03:18:41.086Z,3.06
2018-02-17T03:19:41.071Z,3.05
2018-02-17T03:20:41.050Z,3.00
2018-02-17T03:21:41.040Z,3.10
2018-02-17T03:22:41.026Z,3.13
2018-02-17T03:24:02.017Z,3.10
2018-02-17T03:24:40.991Z,3.10
2018-02-17T03:25:40.978Z,3.00
2018-02-17T03:26:40.963Z,3.03
2018-02-17T03:27:40.955Z,3.13
2018-02-17T03:28:40.933Z,3.00
2018-02-17T03:30:01.932Z,3.00
2018-02-17T03:30:40.909Z,3.03
2018-02-17T03:31:40.894Z,3.05
2018-02-17T03:32:40.885Z,3.00
2018-02-17T03:33:40.862Z,3.03
2018-02-17T03:34:40.855Z,3.02
2018-02-17T03:36:01.843Z,3.08
2018-02-17T03:36:40.820Z,3.00
2018-02-17T03:37:40.805Z,3.02
2018-02-17T03:38:40.791Z,3.02
2018-02-17T03:39:40.779Z,2.99
2018-02-17T03:40:40.759Z,3.05
2018-02-17T03:42:01.751Z,3.08
2018-02-17T03:42:40.731Z,3.03
2018-02-17T03:43:40.720Z,3.06
2018-02-17T03:44:40.703Z,3.02
2018-02-17T03:45:40.688Z,3.02
2018-02-17T03:46:40.672Z,3.00
2018-02-17T03:48:01.656Z,3.06
2018-02-17T03:48:40.643Z,3.03
2018-02-17T03:49:40.629Z,3.05
2018-02-17T03:50:40.606Z,3.02
2018-02-17T03:51:40.597Z,3.05
2018-02-17T03:52:40.585Z,3.02
2018-02-17T03:54:01.572Z,2.97
2018-02-17T03:54:40.551Z,2.97
2018-02-17T03:55:40.534Z,2.97
2018-02-17T03:56:40.523Z,2.97
2018-02-17T03:57:40.504Z,3.00
2018-02-17T03:58:40.492Z,2.96
2018-02-17T04:00:01.484Z,2.95
2018-02-17T04:00:40.460Z,2.97
2018-02-17T04:01:40.451Z,3.02
2018-02-17T04:02:40.437Z,2.97
2018-02-17T04:03:40.415Z,2.96
2018-02-17T04:04:40.399Z,3.02
2018-02-17T04:06:01.385Z,2.87
2018-02-17T04:06:40.377Z,3.00
2018-02-17T04:07:40.353Z,3.03
2018-02-17T04:08:40.343Z,2.96
2018-02-17T04:09:40.332Z,2.99
2018-02-17T04:10:40.312Z,2.96
2018-02-17T04:12:01.308Z,3.00
2018-02-17T04:12:40.284Z,2.92
2018-02-17T04:13:40.268Z,2.93
2018-02-17T04:14:40.250Z,2.92
2018-02-17T04:15:40.241Z,2.92
2018-02-17T04:16:40.223Z,2.84
2018-02-17T04:18:01.213Z,2.84
2018-02-17T04:18:40.189Z,2.89
2018-02-17T04:19:40.180Z,2.81
2018-02-17T04:20:40.163Z,2.85
2018-02-17T04:21:40.144Z,2.81
2018-02-17T04:22:40.135Z,2.87
2018-02-17T04:24:01.126Z,2.84
2018-02-17T04:24:40.106Z,2.82
2018-02-17T04:25:40.089Z,2.84
2018-02-17T04:26:40.074Z,2.82
2018-02-17T04:27:40.058Z,2.90
2018-02-17T04:28:40.042Z,2.96
2018-02-17T04:30:01.034Z,2.96
2018-02-17T04:30:40.015Z,3.00
2018-02-17T04:31:40.001Z,2.97
2018-02-17T04:32:39.989Z,2.93
2018-02-17T04:33:39.968Z,2.87
2018-02-17T04:34:39.959Z,2.84
2018-02-17T04:36:00.945Z,2.87
2018-02-17T04:36:39.927Z,2.81
2018-02-17T04:37:39.910Z,2.82
2018-02-17T04:38:39.897Z,2.85
2018-02-17T04:39:39.878Z,2.85
2018-02-17T04:40:39.862Z,2.79
2018-02-17T04:42:00.856Z,2.82
2018-02-17T04:42:39.845Z,2.85
2018-02-17T04:43:39.831Z,2.84
2018-02-17T04:44:39.806Z,2.84
2018-02-17T04:45:39.792Z,2.82
2018-02-17T04:46:39.778Z,2.78
2018-02-17T04:48:00.767Z,2.81
2018-02-17T04:48:39.746Z,2.77
2018-02-17T04:49:39.730Z,2.74
2018-02-17T04:50:39.716Z,2.81
2018-02-17T04:51:39.701Z,2.71
2018-02-17T04:52:39.680Z,2.78
2018-02-17T04:54:00.678Z,2.69
2018-02-17T04:54:39.653Z,2.63
2018-02-17T04:55:39.643Z,2.64
2018-02-17T04:56:39.626Z,2.64
2018-02-17T04:57:39.615Z,2.69
2018-02-17T04:58:39.598Z,2.60
2018-02-17T05:00:00.582Z,2.64
2018-02-17T05:00:39.563Z,2.64
2018-02-17T05:01:39.552Z,2.71
2018-02-17T05:02:39.538Z,2.78
2018-02-17T05:03:39.521Z,2.77
2018-02-17T05:04:39.508Z,2.74
2018-02-17T05:06:00.495Z,2.71
2018-02-17T05:06:39.471Z,2.66
2018-02-17T05:07:39.460Z,2.71
2018-02-17T05:08:39.448Z,2.63
2018-02-17T05:09:39.432Z,2.77
2018-02-17T05:10:39.412Z,2.67
2018-02-17T05:12:00.405Z,2.71
2018-02-17T05:12:39.387Z,2.67
2018-02-17T05:13:39.369Z,2.72
2018-02-17T05:14:39.353Z,2.74
2018-02-17T05:15:39.339Z,2.67
2018-02-17T05:16:39.326Z,2.71
2018-02-17T05:18:00.316Z,2.84
2018-02-17T05:18:39.298Z,2.71
2018-02-17T05:19:39.280Z,2.72
2018-02-17T05:20:39.266Z,2.72
2018-02-17T05:21:39.263Z,2.64
2018-02-17T05:22:39.236Z,2.77
2018-02-17T05:24:00.222Z,2.72
2018-02-17T05:24:39.212Z,2.71
2018-02-17T05:25:39.189Z,2.74
2018-02-17T05:26:39.173Z,2.69
2018-02-17T05:27:39.156Z,2.81
2018-02-17T05:28:39.148Z,2.77
2018-02-17T05:30:00.137Z,2.74
2018-02-17T05:30:39.114Z,2.66
2018-02-17T05:31:39.100Z,2.74
2018-02-17T05:32:39.082Z,2.69
2018-02-17T05:33:39.070Z,2.79
2018-02-17T05:34:39.056Z,2.71
2018-02-17T05:36:00.042Z,2.78
2018-02-17T05:36:39.018Z,2.75
2018-02-17T05:37:39.009Z,2.79
2018-02-17T05:38:38.996Z,2.79
2018-02-17T05:39:38.982Z,2.72
2018-02-17T05:40:38.966Z,2.67
2018-02-17T05:41:59.950Z,2.77
2018-02-17T05:42:38.932Z,2.74
2018-02-17T05:43:38.920Z,2.72
2018-02-17T05:44:38.908Z,2.66
2018-02-17T05:45:38.883Z,2.67
2018-02-17T05:46:38.873Z,2.67
2018-02-17T05:47:59.859Z,2.57
2018-02-17T05:48:38.841Z,2.56
2018-02-17T05:49:38.824Z,2.67
2018-02-17T05:50:38.813Z,2.64
2018-02-17T05:51:38.796Z,2.66
2018-02-17T05:52:38.784Z,2.67
2018-02-17T05:53:59.762Z,2.71
2018-02-17T05:54:38.748Z,2.67
2018-02-17T05:55:38.734Z,2.64
2018-02-17T05:56:38.716Z,2.69
2018-02-17T05:57:38.705Z,2.72
2018-02-17T05:58:38.690Z,2.71
2018-02-17T05:59:59.677Z,2.79
2018-02-17T06:00:38.653Z,2.61
2018-02-17T06:01:38.643Z,2.61
2018-02-17T06:02:38.630Z,2.75
2018-02-17T06:03:38.614Z,2.75
2018-02-17T06:04:38.595Z,2.77
2018-02-17T06:05:59.584Z,2.79
2018-02-17T06:06:38.569Z,2.74
2018-02-17T06:07:38.583Z,2.75
2018-02-17T06:08:38.542Z,2.79
2018-02-17T06:09:38.526Z,2.77
2018-02-17T06:10:38.503Z,2.74
2018-02-17T06:11:59.491Z,2.63
2018-02-17T06:12:38.475Z,2.71
2018-02-17T06:13:38.459Z,2.71
2018-02-17T06:14:38.450Z,2.69
2018-02-17T06:15:38.431Z,2.74
2018-02-17T06:16:38.413Z,2.72
2018-02-17T06:17:59.402Z,2.78
2018-02-17T06:18:38.380Z,2.72
2018-02-17T06:19:38.370Z,2.74
2018-02-17T06:20:38.348Z,2.77
2018-02-17T06:21:38.336Z,2.78
2018-02-17T06:22:38.324Z,2.82
2018-02-17T06:23:59.306Z,2.82
2018-02-17T06:24:38.294Z,2.82
2018-02-17T06:25:38.273Z,2.85
2018-02-17T06:26:38.262Z,2.85
2018-02-17T06:27:38.246Z,2.87
2018-02-17T06:28:38.238Z,2.84
2018-02-17T06:29:59.219Z,2.81
2018-02-17T06:30:38.199Z,2.79
2018-02-17T06:31:38.191Z,2.87
2018-02-17T06:32:38.171Z,2.84
2018-02-17T06:33:38.153Z,2.87
2018-02-17T06:34:38.141Z,2.85
2018-02-17T06:35:59.127Z,2.82
2018-02-17T06:36:38.111Z,2.85
2018-02-17T06:37:38.099Z,2.81
2018-02-17T06:38:38.076Z,2.87
2018-02-17T06:39:38.065Z,2.90
2018-02-17T06:40:38.055Z,2.93
2018-02-17T06:41:59.038Z,3.03
2018-02-17T06:42:38.021Z,3.02
2018-02-17T06:43:38.006Z,2.99
2018-02-17T06:44:37.986Z,3.00
2018-02-17T06:45:37.981Z,2.99
2018-02-17T06:46:37.959Z,3.02
2018-02-17T06:47:58.945Z,3.05
2018-02-17T06:48:37.928Z,3.02
2018-02-17T06:49:37.915Z,3.13
2018-02-17T06:50:37.903Z,3.06
2018-02-17T06:51:37.883Z,3.10
2018-02-17T06:52:37.868Z,3.10
2018-02-17T06:53:58.857Z,3.10
2018-02-17T06:54:37.838Z,3.20
2018-02-17T06:55:37.819Z,3.14
2018-02-17T06:56:37.807Z,3.29
2018-02-17T06:57:37.798Z,3.31
2018-02-17T06:58:37.781Z,3.39
2018-02-17T06:59:58.767Z,3.42
2018-02-17T07:00:37.746Z,3.40
2018-02-17T07:01:37.729Z,3.42
2018-02-17T07:02:37.715Z,3.43
2018-02-17T07:03:37.705Z,3.47
2018-02-17T07:04:37.685Z,3.47
2018-02-17T07:05:58.679Z,3.55
2018-02-17T07:06:37.655Z,3.45
2018-02-17T07:07:37.647Z,3.55
2018-02-17T07:08:37.625Z,3.58
2018-02-17T07:09:37.616Z,3.52
2018-02-17T07:10:37.597Z,3.55
2018-02-17T07:11:58.589Z,3.57
2018-02-17T07:12:37.571Z,3.52
2018-02-17T07:13:37.550Z,3.60
2018-02-17T07:14:37.541Z,3.61
2018-02-17T07:15:37.522Z,3.62
2018-02-17T07:16:37.511Z,3.76
2018-02-17T07:17:58.497Z,3.72
2018-02-17T07:18:37.479Z,3.79
2018-02-17T07:19:37.467Z,3.76
2018-02-17T07:20:37.450Z,3.79
2018-02-17T07:21:37.434Z,3.80
2018-02-17T07:22:37.418Z,3.91
2018-02-17T07:23:58.409Z,3.93
2018-02-17T07:24:37.392Z,3.93
2018-02-17T07:25:37.376Z,4.05
2018-02-17T07:26:37.362Z,4.02
2018-02-17T07:27:37.350Z,4.06
2018-02-17T07:28:37.327Z,4.23
2018-02-17T07:29:58.320Z,4.11
2018-02-17T07:30:37.304Z,4.30
2018-02-17T07:31:37.292Z,4.27
2018-02-17T07:32:37.274Z,4.29
2018-02-17T07:33:37.262Z,4.36
2018-02-17T07:34:37.248Z,4.40
2018-02-17T07:35:58.232Z,4.44
2018-02-17T07:36:37.219Z,4.48
2018-02-17T07:37:37.202Z,4.50
2018-02-17T07:38:37.190Z,4.55
2018-02-17T07:39:37.172Z,4.67
2018-02-17T07:40:37.166Z,4.66
2018-02-17T07:41:58.148Z,4.73
2018-02-17T07:42:37.126Z,4.70
2018-02-17T07:43:37.119Z,4.72
2018-02-17T07:44:37.102Z,4.82
2018-02-17T07:45:37.086Z,4.85
2018-02-17T07:46:37.075Z,4.91
2018-02-17T07:47:58.074Z,4.89
2018-02-17T07:48:37.045Z,4.92
2018-02-17T07:49:37.036Z,4.92
2018-02-17T07:50:37.017Z,5.02
2018-02-17T07:51:37.049Z,5.00
2018-02-17T07:52:36.990Z,4.94
2018-02-17T07:53:57.979Z,5.00
2018-02-17T07:54:36.958Z,5.03
2018-02-17T07:55:36.948Z,5.03
2018-02-17T07:56:36.938Z,5.09
2018-02-17T07:57:36.920Z,5.22
2018-02-17T07:58:36.916Z,5.30
2018-02-17T07:59:57.942Z,5.33
2018-02-17T08:00:36.880Z,5.46
2018-02-17T08:01:36.865Z,5.49
2018-02-17T08:02:36.859Z,5.53
2018-02-17T08:03:36.852Z,5.54
2018-02-17T08:04:36.824Z,5.58
2018-02-17T08:05:57.815Z,5.63
2018-02-17T08:06:36.800Z,5.68
2018-02-17T08:07:36.783Z,5.75
2018-02-17T08:08:36.766Z,5.81
2018-02-17T08:09:36.752Z,5.83
2018-02-17T08:10:36.741Z,5.91
2018-02-17T08:11:57.731Z,5.96
2018-02-17T08:12:36.715Z,5.99
2018-02-17T08:13:36.702Z,5.91
2018-02-17T08:14:36.686Z,5.96
2018-02-17T08:15:36.676Z,6.15
2018-02-17T08:16:36.661Z,6.11
2018-02-17T08:17:57.653Z,6.11
2018-02-17T08:18:36.630Z,6.27
2018-02-17T08:19:36.621Z,6.18
2018-02-17T08:20:36.606Z,6.21
2018-02-17T08:21:36.595Z,6.15
2018-02-17T08:22:36.581Z,6.31
2018-02-17T08:23:57.573Z,6.41
2018-02-17T08:24:36.551Z,6.38
2018-02-17T08:25:36.545Z,6.40
2018-02-17T08:26:36.527Z,6.41
2018-02-17T08:27:36.514Z,6.43
2018-02-17T08:28:36.499Z,6.56
2018-02-17T08:29:57.493Z,6.54
2018-02-17T08:30:36.478Z,6.49
2018-02-17T08:31:36.465Z,6.59
2018-02-17T08:32:36.449Z,6.69
2018-02-17T08:33:36.439Z,6.69
2018-02-17T08:34:36.431Z,6.59
2018-02-17T08:35:57.415Z,6.54
2018-02-17T08:36:36.392Z,6.69
2018-02-17T08:37:36.383Z,6.73
2018-02-17T08:38:36.375Z,6.76
2018-02-17T08:39:36.361Z,6.79
2018-02-17T08:40:36.346Z,6.92
2018-02-17T08:41:57.338Z,6.97
2018-02-17T08:42:36.322Z,7.20
2018-02-17T08:43:36.306Z,7.21
2018-02-17T08:44:36.294Z,7.28
2018-02-17T08:45:36.277Z,7.21
2018-02-17T08:46:36.270Z,7.31
2018-02-17T08:47:57.260Z,7.27
2018-02-17T08:48:36.242Z,7.30
2018-02-17T08:49:36.230Z,7.27
2018-02-17T08:50:36.217Z,7.40
2018-02-17T08:51:36.206Z,7.35
2018-02-17T08:52:36.197Z,7.35
2018-02-17T08:53:57.189Z,7.42
2018-02-17T08:54:36.164Z,7.57
2018-02-17T08:55:36.154Z,7.61
2018-02-17T08:56:36.146Z,7.72
2018-02-17T08:57:36.130Z,7.69
2018-02-17T08:58:36.115Z,7.80
2018-02-17T08:59:57.110Z,8.20
2018-02-17T09:00:36.096Z,8.50
2018-02-17T09:01:36.084Z,8.76
2018-02-17T09:02:36.062Z,8.92
2018-02-17T09:03:36.061Z,8.99
2018-02-17T09:04:36.046Z,8.95
2018-02-17T09:05:57.036Z,8.95
2018-02-17T09:06:36.023Z,8.99
2018-02-17T09:07:36.007Z,8.89
2018-02-17T09:08:35.997Z,8.94
2018-02-17T09:09:35.990Z,8.81
2018-02-17T09:10:35.971Z,8.73
2018-02-17T09:11:56.971Z,8.65
2018-02-17T09:12:35.947Z,8.81
2018-02-17T09:13:35.943Z,8.89
2018-02-17T09:14:35.919Z,8.99
2018-02-17T09:15:35.911Z,9.18
2018-02-17T09:16:35.900Z,9.24
2018-02-17T09:17:56.892Z,9.21
2018-02-17T09:18:35.876Z,9.17
2018-02-17T09:19:35.867Z,9.26
2018-02-17T09:20:35.853Z,9.35
2018-02-17T09:21:35.851Z,9.60
2018-02-17T09:22:35.833Z,9.74
2018-02-17T09:23:56.827Z,9.97
2018-02-17T09:24:35.809Z,10.08
2018-02-17T09:25:35.799Z,10.36
2018-02-17T09:26:35.785Z,10.64
2018-02-17T09:27:35.774Z,10.68
2018-02-17T09:28:35.763Z,10.85
2018-02-17T09:29:56.763Z,10.74
2018-02-17T09:30:35.741Z,10.81
2018-02-17T09:31:35.733Z,10.78
2018-02-17T09:32:35.718Z,10.81
2018-02-17T09:33:35.705Z,10.86
2018-02-17T09:34:35.700Z,10.99
2018-02-17T09:35:56.697Z,10.96
2018-02-17T09:36:35.673Z,11.06
2018-02-17T09:37:35.661Z,11.14
2018-02-17T09:38:35.657Z,11.18
2018-02-17T09:39:35.650Z,11.09
2018-02-17T09:40:35.634Z,11.14
2018-02-17T09:41:56.629Z,11.18
2018-02-17T09:42:35.612Z,11.37
2018-02-17T09:43:35.605Z,11.61
2018-02-17T09:44:35.594Z,11.65
2018-02-17T09:45:35.580Z,11.94
2018-02-17T09:46:35.570Z,11.91
2018-02-17T09:47:56.565Z,12.16
2018-02-17T09:48:35.550Z,12.29
2018-02-17T09:49:35.541Z,12.45
2018-02-17T09:50:35.527Z,12.64
2018-02-17T09:51:35.522Z,12.86
2018-02-17T09:52:35.509Z,13.03
2018-02-17T09:53:56.502Z,13.07
2018-02-17T09:54:35.492Z,13.26
2018-02-17T09:55:35.478Z,13.36
2018-02-17T09:56:35.472Z,13.42
2018-02-17T09:57:35.463Z,13.57
2018-02-17T09:58:35.454Z,13.62
2018-02-17T09:59:56.448Z,13.62
2018-02-17T10:00:35.441Z,13.60
2018-02-17T10:01:35.418Z,13.59
2018-02-17T10:02:35.419Z,13.67
2018-02-17T10:03:35.405Z,13.77
2018-02-17T10:04:35.390Z,13.89
2018-02-17T10:05:56.392Z,13.78
2018-02-17T10:06:35.378Z,13.77
2018-02-17T10:07:35.364Z,13.88
2018-02-17T10:08:35.356Z,13.75
2018-02-17T10:09:35.348Z,13.78
2018-02-17T10:10:35.344Z,13.64
2018-02-17T10:11:56.342Z,13.71
2018-02-17T10:12:35.321Z,13.75
2018-02-17T10:13:35.314Z,13.89
2018-02-17T10:14:35.306Z,13.96
2018-02-17T10:15:35.294Z,14.03
2018-02-17T10:16:35.294Z,14.18
2018-02-17T10:17:56.284Z,14.07
2018-02-17T10:18:35.272Z,14.20
2018-02-17T10:19:35.273Z,14.33
2018-02-17T10:20:35.264Z,14.45
2018-02-17T10:21:35.247Z,14.42
2018-02-17T10:22:35.240Z,14.51
2018-02-17T10:23:56.238Z,14.55
2018-02-17T10:24:35.248Z,14.69
2018-02-17T10:25:35.219Z,14.75
2018-02-17T10:26:35.204Z,14.81
2018-02-17T10:27:35.198Z,14.96
2018-02-17T10:28:35.184Z,15.02
2018-02-17T10:29:56.251Z,15.16
2018-02-17T10:30:35.169Z,15.28
2018-02-17T10:31:35.167Z,15.27
2018-02-17T10:32:35.157Z,15.35
2018-02-17T10:33:35.143Z,15.34
2018-02-17T10:34:35.139Z,15.46
2018-02-17T10:35:56.141Z,15.51
2018-02-17T10:36:35.123Z,15.44
2018-02-17T10:37:35.117Z,15.29
2018-02-17T10:38:35.107Z,15.23
2018-02-17T10:39:35.102Z,15.27
2018-02-17T10:40:35.102Z,15.38
2018-02-17T10:41:56.097Z,15.23
2018-02-17T10:42:35.081Z,15.13
2018-02-17T10:43:35.071Z,15.14
2018-02-17T10:44:35.064Z,15.21
2018-02-17T10:45:35.055Z,15.14
2018-02-17T10:46:35.045Z,15.17
2018-02-17T10:47:56.049Z,15.11
2018-02-17T10:48:35.082Z,14.95
2018-02-17T10:49:35.023Z,14.94
2018-02-17T10:50:35.042Z,14.92
2018-02-17T10:51:35.012Z,14.98
2018-02-17T10:52:35.009Z,14.95
2018-02-17T10:53:56.003Z,14.80
2018-02-17T10:54:34.984Z,14.84
2018-02-17T10:55:34.983Z,14.75
2018-02-17T10:56:34.971Z,14.52
2018-02-17T10:57:34.968Z,14.55
2018-02-17T10:58:34.958Z,14.45
2018-02-17T10:59:55.959Z,14.32
2018-02-17T11:00:34.942Z,14.32
2018-02-17T11:01:34.936Z,14.20
2018-02-17T11:02:34.939Z,14.10
2018-02-17T11:03:34.921Z,13.92
2018-02-17T11:04:34.913Z,13.88
2018-02-17T11:05:55.909Z,13.66
2018-02-17T11:06:34.899Z,13.46
2018-02-17T11:07:34.889Z,13.28
2018-02-17T11:08:34.882Z,13.14
2018-02-17T11:09:34.876Z,13.11
2018-02-17T11:10:34.871Z,13.10
2018-02-17T11:11:55.867Z,13.08
2018-02-17T11:12:34.853Z,13.05
2018-02-17T11:13:34.841Z,12.92
2018-02-17T11:14:34.833Z,13.03
2018-02-17T11:15:34.827Z,13.07
2018-02-17T11:16:34.817Z,13.15
2018-02-17T11:17:55.814Z,13.11
2018-02-17T11:18:34.801Z,13.25
2018-02-17T11:19:34.799Z,13.29
2018-02-17T11:20:34.783Z,13.45
2018-02-17T11:21:34.771Z,13.44
2018-02-17T11:22:34.773Z,13.48
2018-02-17T11:23:55.765Z,13.42
2018-02-17T11:24:34.753Z,13.45
2018-02-17T11:25:34.742Z,13.42
2018-02-17T11:26:34.733Z,13.45
2018-02-17T11:27:34.729Z,13.26
2018-02-17T11:28:34.715Z,13.19
2018-02-17T11:29:55.713Z,13.05
2018-02-17T11:30:34.699Z,12.83
2018-02-17T11:31:34.695Z,12.87
2018-02-17T11:32:34.690Z,12.89
2018-02-17T11:33:34.678Z,12.87
2018-02-17T11:34:34.667Z,12.71
2018-02-17T11:35:55.672Z,12.67
2018-02-17T11:36:34.651Z,12.54
2018-02-17T11:37:34.647Z,12.56
2018-02-17T11:38:34.630Z,12.50
2018-02-17T11:39:34.623Z,12.42
2018-02-17T11:40:34.615Z,12.45
2018-02-17T11:41:55.614Z,12.47
2018-02-17T11:42:34.606Z,12.39
2018-02-17T11:43:34.593Z,12.49
2018-02-17T11:44:34.579Z,12.50
2018-02-17T11:45:34.574Z,12.38
2018-02-17T11:46:34.565Z,12.42
2018-02-17T11:47:55.563Z,12.38
2018-02-17T11:48:34.552Z,12.41
2018-02-17T11:49:34.581Z,12.37
2018-02-17T11:50:34.535Z,12.38
2018-02-17T11:51:34.521Z,12.37
2018-02-17T11:52:34.507Z,12.34
2018-02-17T11:53:55.514Z,12.32
2018-02-17T11:54:34.492Z,12.31
2018-02-17T11:55:34.485Z,12.32
2018-02-17T11:56:34.475Z,12.24
2018-02-17T11:57:34.474Z,12.42
2018-02-17T11:58:34.461Z,12.29
2018-02-17T11:59:55.455Z,12.45
2018-02-17T12:00:34.441Z,12.46
2018-02-17T12:01:34.431Z,12.45
2018-02-17T12:02:34.423Z,12.47
2018-02-17T12:03:34.419Z,12.53
2018-02-17T12:04:34.401Z,12.50
2018-02-17T12:05:55.401Z,12.46
2018-02-17T12:06:34.390Z,12.50
2018-02-17T12:07:34.375Z,12.41
2018-02-17T12:08:34.365Z,12.42
2018-02-17T12:09:34.361Z,12.42
2018-02-17T12:10:34.355Z,12.45
2018-02-17T12:11:55.343Z,12.57
2018-02-17T12:12:34.331Z,12.46
2018-02-17T12:13:34.326Z,12.42
2018-02-17T12:14:34.318Z,12.54
2018-02-17T12:15:34.305Z,12.50
2018-02-17T12:16:34.299Z,12.54
2018-02-17T12:17:55.288Z,12.54
2018-02-17T12:18:34.277Z,12.54
2018-02-17T12:19:34.271Z,12.50
2018-02-17T12:20:34.263Z,12.49
2018-02-17T12:21:34.257Z,12.52
2018-02-17T12:22:34.246Z,12.45
2018-02-17T12:23:55.264Z,12.49
2018-02-17T12:24:34.226Z,12.47
2018-02-17T12:25:34.214Z,12.42
2018-02-17T12:26:34.204Z,12.45
2018-02-17T12:27:34.196Z,12.41
2018-02-17T12:28:34.188Z,12.29
2018-02-17T12:29:55.189Z,12.35
2018-02-17T12:30:34.172Z,12.16
2018-02-17T12:31:34.164Z,12.23
2018-02-17T12:32:34.156Z,12.13
2018-02-17T12:33:34.147Z,12.05
2018-02-17T12:34:34.130Z,12.02
2018-02-17T12:35:55.134Z,11.95
2018-02-17T12:36:34.120Z,11.94
2018-02-17T12:37:34.110Z,11.95
2018-02-17T12:38:34.098Z,11.90
2018-02-17T12:39:34.090Z,11.83
2018-02-17T12:40:34.082Z,11.85
2018-02-17T12:41:55.078Z,11.80
2018-02-17T12:42:34.060Z,11.79
2018-02-17T12:43:34.054Z,11.62
2018-02-17T12:44:34.046Z,11.60
2018-02-17T12:45:34.036Z,11.64
2018-02-17T12:46:34.024Z,11.67
2018-02-17T12:47:55.020Z,11.60
2018-02-17T12:48:34.006Z,11.64
2018-02-17T12:49:33.996Z,11.61
2018-02-17T12:50:33.988Z,11.57
2018-02-17T12:51:33.978Z,11.58
2018-02-17T12:52:33.964Z,11.58
2018-02-17T12:53:54.968Z,11.55
2018-02-17T12:54:33.993Z,11.65
2018-02-17T12:55:33.940Z,11.55
2018-02-17T12:56:33.931Z,11.49
2018-02-17T12:57:33.920Z,11.44
2018-02-17T12:58:33.916Z,11.52
2018-02-17T12:59:54.910Z,11.37
2018-02-17T13:00:33.899Z,11.35
2018-02-17T13:01:33.886Z,11.21
2018-02-17T13:02:33.875Z,11.22
2018-02-17T13:03:33.866Z,11.21
2018-02-17T13:04:33.865Z,11.18
2018-02-17T13:05:54.848Z,11.17
2018-02-17T13:06:33.832Z,11.09
2018-02-17T13:07:33.824Z,11.02
2018-02-17T13:08:33.814Z,10.99
2018-02-17T13:09:33.810Z,10.88